Time;durP1;ratioP1;P1;durP2;ratioP2;P2;SDS_P1;SDS_P2;PMS_P1;PMS_P2;Temp;Humidity;BMP_temperature;BMP_pressure;BME280_temperature;BME280_humidity;BME280_pressure;Samples;Min_cycle;Max_cycle;Signal;HPM_P1;HPM_P2
2023/04/30 00:00:38;;;;;;;17.40;12.70;;;;;;;5.33;86.24;97049.42;110107;1243;69092;-72
2023/04/30 00:03:29;;;;;;;15.40;11.70;;;;;;;5.31;89.07;97048.29;110165;1246;58896;-74
2023/04/30 00:06:00;;;;;;;18.00;10.60;;;;;;;5.31;91.66;97049.66;110167;1241;58934;-74
2023/04/30 00:08:30;;;;;;;16.30;12.30;;;;;;;5.29;93.56;97047.72;110169;1241;70593;-74
2023/04/30 00:11:01;;;;;;;18.10;13.30;;;;;;;5.26;94.41;97047.20;110150;1245;69285;-73
2023/04/30 00:13:30;;;;;;;17.10;13.40;;;;;;;5.25;94.09;97048.67;110178;1243;68510;-74
2023/04/30 00:16:02;;;;;;;17.90;12.60;;;;;;;5.23;92.43;97050.85;110151;1243;58892;-73
2023/04/30 00:18:32;;;;;;;16.50;11.60;;;;;;;5.21;91.93;97047.18;110186;1244;58850;-74
2023/04/30 00:21:03;;;;;;;14.20;11.10;;;;;;;5.22;92.28;97048.49;110147;1241;71000;-73
2023/04/30 00:23:36;;;;;;;15.20;12.90;;;;;;;5.24;92.99;97049.90;110191;1244;69098;-73
2023/04/30 00:26:07;;;;;;;16.00;11.60;;;;;;;5.27;94.59;97047.83;110140;1241;69271;-73
2023/04/30 00:28:39;;;;;;;16.70;11.80;;;;;;;5.31;95.54;97044.86;110182;1241;58939;-73
2023/04/30 00:31:10;;;;;;;14.90;10.90;;;;;;;5.35;95.30;97050.11;110150;1245;58886;-73
2023/04/30 00:33:42;;;;;;;12.50;11.10;;;;;;;5.41;95.29;97049.30;110176;1245;69890;-73
2023/04/30 00:36:12;;;;;;;;;;;;;;;5.43;95.09;97048.98;110171;1245;69347;-73
2023/04/30 00:38:42;;;;;;;15.60;11.60;;;;;;;5.45;94.58;97048.37;110145;1242;69141;-73
2023/04/30 00:41:12;;;;;;;17.70;12.60;;;;;;;5.45;94.54;97048.35;110080;1241;58964;-72
2023/04/30 00:43:45;;;;;;;13.90;11.00;;;;;;;5.44;94.70;97049.48;110098;1245;58831;-74
2023/04/30 00:46:18;;;;;;;16.50;12.10;;;;;;;5.43;95.98;97047.98;110171;1241;70585;-72
2023/04/30 00:48:50;;;;;;;13.90;10.80;;;;;;;5.43;96.51;97047.63;110166;1241;68455;-72
2023/04/30 00:51:23;;;;;;;14.30;10.50;;;;;;;5.46;96.03;97047.30;110143;1241;69120;-73
2023/04/30 00:53:53;;;;;;;14.30;10.20;;;;;;;5.46;95.50;97047.63;110161;1244;58989;-73
2023/04/30 00:56:23;;;;;;;16.60;13.60;;;;;;;5.45;95.05;97049.04;110203;1244;58846;-73
2023/04/30 00:58:56;;;;;;;16.10;12.40;;;;;;;5.43;95.74;97048.45;110153;1241;70637;-73
2023/04/30 01:01:30;;;;;;;19.10;13.50;;;;;;;5.44;96.18;97050.16;110147;1241;68634;-73
2023/04/30 01:04:01;;;;;;;17.90;12.80;;;;;;;5.43;96.44;97051.09;110111;1241;69485;-73
2023/04/30 01:06:32;;;;;;;17.00;12.70;;;;;;;5.42;96.31;97048.20;110156;1241;58849;-73
2023/04/30 01:09:04;;;;;;;14.50;10.50;;;;;;;5.41;96.20;97051.20;110181;1241;58937;-73
2023/04/30 01:12:09;;;;;;;16.80;13.10;;;;;;;5.42;95.09;97050.63;110126;1241;70577;-73
2023/04/30 01:15:15;;;;;;;13.20;10.60;;;;;;;5.41;95.60;97047.54;110108;1245;69274;-73
2023/04/30 01:18:09;;;;;;;15.80;12.00;;;;;;;5.42;94.59;97049.72;110149;1243;69191;-73
2023/04/30 01:20:49;;;;;;;14.00;10.30;;;;;;;5.43;95.84;97049.19;110154;1243;58931;-73
2023/04/30 01:24:12;;;;;;;12.30;10.00;;;;;;;5.43;89.18;97047.95;110175;1241;58864;-73
2023/04/30 01:27:15;;;;;;;14.60;11.70;;;;;;;5.42;88.28;97046.84;109597;1250;69868;-73
2023/04/30 01:29:46;;;;;;;14.60;11.70;;;;;;;5.39;88.48;97044.39;110187;1245;67581;-73
2023/04/30 01:32:18;;;;;;;15.10;11.60;;;;;;;5.40;94.26;97040.02;110124;1243;68335;-73
2023/04/30 01:34:53;;;;;;;15.60;12.50;;;;;;;5.42;93.15;97035.95;110172;1242;58913;-73
2023/04/30 01:37:48;;;;;;;14.60;10.50;;;;;;;5.43;93.86;97030.33;110192;1245;58840;-73
2023/04/30 01:40:39;;;;;;;16.30;10.90;;;;;;;5.45;94.03;97033.84;110130;1243;70519;-73
2023/04/30 01:43:20;;;;;;;14.50;11.00;;;;;;;5.45;95.03;97028.27;110118;1241;68530;-73
2023/04/30 01:46:02;;;;;;;13.20;10.20;;;;;;;5.49;95.45;97023.75;110120;1244;69389;-73
2023/04/30 01:49:18;;;;;;;15.50;12.20;;;;;;;5.54;95.01;97027.27;110119;1241;58944;-73
2023/04/30 01:52:02;;;;;;;19.20;12.90;;;;;;;5.57;96.79;97024.67;110203;1243;58791;-73
2023/04/30 01:55:14;;;;;;;13.10;11.50;;;;;;;5.59;96.86;97024.86;110131;1241;70613;-73
2023/04/30 01:57:57;;;;;;;16.50;13.10;;;;;;;5.62;96.61;97028.31;110151;1244;68707;-74
2023/04/30 02:00:30;;;;;;;15.80;12.40;;;;;;;5.64;95.65;97025.98;110150;1245;69313;-73
2023/04/30 02:03:01;;;;;;;19.00;13.50;;;;;;;5.66;95.95;97024.65;110172;1241;58944;-73
2023/04/30 02:05:35;;;;;;;17.20;13.20;;;;;;;5.67;95.86;97019.90;109685;1245;535986;-73
2023/04/30 02:08:08;;;;;;;15.60;12.40;;;;;;;5.63;95.67;97017.95;110150;1243;69854;-73
2023/04/30 02:10:43;;;;;;;18.10;13.50;;;;;;;5.53;97.18;97021.24;110109;1245;69080;-73
2023/04/30 02:13:16;;;;;;;17.90;12.20;;;;;;;5.44;96.02;97015.72;110130;1245;69362;-73
2023/04/30 02:15:47;;;;;;;16.50;13.60;;;;;;;5.37;95.39;97014.77;110098;1241;58939;-73
2023/04/30 02:18:20;;;;;;;17.20;12.70;;;;;;;5.29;96.55;97017.14;110132;1241;58864;-73
2023/04/30 02:20:52;;;;;;;15.40;13.20;;;;;;;5.24;98.68;97020.37;110111;1241;69663;-73
2023/04/30 02:23:27;;;;;;;18.00;14.20;;;;;;;5.20;96.33;97017.33;110138;1243;69235;-73
2023/04/30 02:26:02;;;;;;;15.40;11.50;;;;;;;5.15;94.69;97017.08;110143;1241;68583;-73
2023/04/30 02:28:36;;;;;;;16.20;13.70;;;;;;;5.11;93.75;97015.55;110164;1241;58956;-73
2023/04/30 02:31:09;;;;;;;17.70;13.90;;;;;;;5.07;93.56;97015.29;110121;1241;58913;-73
2023/04/30 02:33:42;;;;;;;13.50;11.30;;;;;;;5.05;97.33;97013.02;110160;1243;70613;-73
2023/04/30 02:36:15;;;;;;;15.20;11.50;;;;;;;5.04;96.32;97018.40;110151;1243;69225;-73
2023/04/30 02:38:46;;;;;;;10.80;9.50;;;;;;;5.04;95.36;97017.89;110102;1245;68708;-73
2023/04/30 02:41:20;;;;;;;14.70;10.60;;;;;;;5.04;94.55;97017.52;110154;1241;58875;-73
2023/04/30 02:43:51;;;;;;;13.30;10.70;;;;;;;5.05;96.28;97020.43;110142;1243;58834;-73
2023/04/30 02:46:22;;;;;;;15.20;11.00;;;;;;;5.03;93.92;97018.77;110154;1241;69679;-73
2023/04/30 02:48:55;;;;;;;14.30;10.20;;;;;;;5.05;92.51;97023.88;110176;1243;69053;-73
2023/04/30 02:51:27;;;;;;;13.90;10.80;;;;;;;5.06;91.31;97020.18;110131;1241;69117;-73
2023/04/30 02:54:01;;;;;;;14.50;10.50;;;;;;;5.08;91.45;97019.90;110155;1245;58912;-72
2023/04/30 02:56:33;;;;;;;13.90;10.50;;;;;;;5.09;90.82;97021.56;110149;1244;58949;-73
2023/04/30 02:59:07;;;;;;;15.10;12.50;;;;;;;5.09;90.09;97022.95;110159;1245;69711;-72
2023/04/30 03:01:39;;;;;;;16.20;13.10;;;;;;;5.06;89.53;97026.77;110184;1241;68513;-73
2023/04/30 03:04:10;;;;;;;15.70;11.70;;;;;;;4.95;91.60;97026.51;110101;1244;69416;-72
2023/04/30 03:06:42;;;;;;;13.40;11.80;;;;;;;4.87;91.91;97022.83;110090;1241;58954;-73
2023/04/30 03:09:14;;;;;;;17.40;13.10;;;;;;;4.77;92.59;97025.42;110141;1245;58898;-73
2023/04/30 03:11:45;;;;;;;15.70;12.20;;;;;;;4.69;93.04;97023.49;110178;1241;69669;-73
2023/04/30 03:14:17;;;;;;;19.80;12.90;;;;;;;4.61;93.41;97022.36;110154;1245;69236;-73
2023/04/30 03:16:46;;;;;;;;;;;;;;;4.54;93.74;97024.27;110205;1243;68720;-73
2023/04/30 03:19:23;;;;;;;14.40;11.20;;;;;;;4.49;94.64;97029.22;110126;1244;58889;-73
2023/04/30 03:21:57;;;;;;;16.80;12.80;;;;;;;4.47;95.66;97029.86;110138;1241;58921;-73
2023/04/30 03:24:29;;;;;;;17.70;12.70;;;;;;;4.46;98.67;97031.29;110127;1245;69614;-72
2023/04/30 03:27:02;;;;;;;22.00;15.50;;;;;;;4.46;100.00;97034.77;110161;1245;68934;-73
2023/04/30 03:29:34;;;;;;;25.00;18.90;;;;;;;4.45;100.00;97032.73;110118;1244;69280;-73
2023/04/30 03:32:04;;;;;;;23.80;15.80;;;;;;;4.47;100.00;97028.48;110072;1245;58866;-73
2023/04/30 03:34:35;;;;;;;21.60;15.60;;;;;;;4.49;100.00;97032.17;110121;1243;58901;-73
2023/04/30 03:37:08;;;;;;;19.30;15.10;;;;;;;4.52;100.00;97031.66;110126;1242;70463;-73
2023/04/30 03:39:39;;;;;;;18.90;15.10;;;;;;;4.56;100.00;97032.47;110109;1241;69854;-73
2023/04/30 03:42:08;;;;;;;19.70;13.50;;;;;;;4.64;100.00;97035.34;110122;1245;68441;-73
2023/04/30 03:44:39;;;;;;;;;;;;;;;4.72;100.00;97035.91;110175;1243;58904;-73
2023/04/30 03:47:10;;;;;;;17.60;12.60;;;;;;;4.80;99.91;97036.48;110085;1241;58896;-73
2023/04/30 03:49:40;;;;;;;19.30;14.50;;;;;;;4.90;99.94;97039.23;110064;1245;71044;-73
2023/04/30 03:52:11;;;;;;;16.60;12.80;;;;;;;4.99;100.00;97044.39;110133;1245;68130;-73
2023/04/30 03:54:41;;;;;;;17.60;13.20;;;;;;;5.10;100.00;97048.46;110082;1241;68350;-73
2023/04/30 03:57:12;;;;;;;15.70;12.10;;;;;;;5.20;99.91;97049.59;110096;1245;58933;-73
2023/04/30 03:59:42;;;;;;;15.80;13.00;;;;;;;5.32;99.01;97049.08;110071;1245;58849;-73
2023/04/30 04:02:12;;;;;;;;;;;;;;;5.45;98.99;97049.59;110066;1241;71172;-73
2023/04/30 04:04:43;;;;;;;16.80;12.60;;;;;;;5.58;97.94;97053.29;110119;1245;69400;-73
2023/04/30 04:07:14;;;;;;;16.30;11.80;;;;;;;5.73;96.78;97051.05;110129;1242;68357;-73
2023/04/30 04:09:45;;;;;;;13.70;10.90;;;;;;;5.91;96.18;97048.94;110187;1245;58945;-73
2023/04/30 04:12:15;;;;;;;16.80;14.10;;;;;;;6.18;96.09;97047.66;110170;1245;58882;-73
2023/04/30 04:14:45;;;;;;;;;;;;;;;6.50;95.31;97053.88;110108;1245;71090;-73
2023/04/30 04:17:15;;;;;;;15.90;12.50;;;;;;;6.84;93.97;97057.06;110161;1244;69041;-73
2023/04/30 04:19:45;;;;;;;16.60;12.70;;;;;;;7.16;93.47;97066.33;110117;1245;69178;-73
2023/04/30 04:22:16;;;;;;;15.00;12.50;;;;;;;7.36;91.39;97063.80;110113;1245;58921;-73
2023/04/30 04:24:46;;;;;;;19.20;12.30;;;;;;;7.49;90.79;97068.15;110122;1241;58934;-73
2023/04/30 04:27:20;;;;;;;13.30;11.60;;;;;;;7.63;88.89;97070.16;110195;1241;71203;-75
2023/04/30 04:29:51;;;;;;;13.10;11.20;;;;;;;7.81;87.95;97069.85;110116;1241;68745;-74
2023/04/30 04:32:22;;;;;;;12.70;11.40;;;;;;;8.02;86.60;97071.17;110098;1244;67608;-74
2023/04/30 04:34:53;;;;;;;13.30;11.10;;;;;;;8.09;82.78;97075.41;110131;1244;58940;-74
2023/04/30 04:37:23;;;;;;;16.10;10.60;;;;;;;8.36;85.33;97070.41;110187;1241;58899;-74
2023/04/30 04:39:53;;;;;;;12.90;10.00;;;;;;;8.49;80.93;97067.66;110131;1242;69640;-74
2023/04/30 04:42:23;;;;;;;14.20;11.30;;;;;;;8.51;76.93;97070.80;110167;1244;68304;-74
2023/04/30 04:44:53;;;;;;;12.00;9.80;;;;;;;8.59;74.36;97068.11;110108;1244;69611;-74
2023/04/30 04:47:22;;;;;;;12.90;9.80;;;;;;;8.61;74.47;97069.89;110129;1243;58957;-74
2023/04/30 04:49:51;;;;;;;12.70;10.20;;;;;;;8.69;74.91;97066.79;110168;1241;58885;-72
2023/04/30 04:52:22;;;;;;;16.50;11.00;;;;;;;8.72;75.13;97071.56;110187;1244;71165;-72
2023/04/30 04:54:53;;;;;;;12.00;10.00;;;;;;;8.74;75.35;97071.27;110124;1245;70039;-73
2023/04/30 04:57:23;;;;;;;12.30;10.30;;;;;;;8.80;75.68;97074.13;110119;1245;68787;-73
2023/04/30 04:59:54;;;;;;;12.00;10.50;;;;;;;8.70;75.36;97075.34;110141;1241;58944;-73
2023/04/30 05:02:24;;;;;;;14.10;10.40;;;;;;;8.59;75.22;97079.30;110185;1244;58915;-73
2023/04/30 05:04:54;;;;;;;13.30;10.30;;;;;;;8.50;76.28;97081.31;110179;1245;70280;-73
2023/04/30 05:07:24;;;;;;;14.20;10.50;;;;;;;8.44;76.61;97081.19;110141;1241;69196;-72
2023/04/30 05:09:54;;;;;;;10.80;9.50;;;;;;;8.42;76.68;97083.62;110156;1242;68394;-73
2023/04/30 05:12:24;;;;;;;13.70;11.10;;;;;;;8.38;77.01;97083.86;110105;1243;58901;-73
2023/04/30 05:14:54;;;;;;;16.50;12.30;;;;;;;8.34;77.42;97085.16;110195;1242;59361;-73
2023/04/30 05:17:23;;;;;;;13.20;10.40;;;;;;;8.34;77.26;97087.88;110154;1243;70568;-73
2023/04/30 05:19:53;;;;;;;12.60;10.80;;;;;;;8.36;77.10;97088.65;110200;1245;68719;-73
2023/04/30 05:22:22;;;;;;;;;;;;;;;8.43;76.15;97090.66;110165;1241;69237;-73
2023/04/30 05:24:51;;;;;;;12.00;10.30;;;;;;;8.51;76.34;97090.79;110147;1244;58938;-73
2023/04/30 05:27:21;;;;;;;13.00;10.30;;;;;;;8.59;76.55;97092.61;110169;1244;58906;-74
2023/04/30 05:29:49;;;;;;;12.90;10.20;;;;;;;8.70;77.48;97093.61;110181;1241;70571;-73
2023/04/30 05:32:19;;;;;;;10.70;9.10;;;;;;;8.85;76.04;97091.45;110160;1241;68455;-73
2023/04/30 05:34:48;;;;;;;10.10;8.50;;;;;;;8.98;72.97;97092.65;110138;1245;69308;-73
2023/04/30 05:37:18;;;;;;;10.30;8.30;;;;;;;9.07;73.02;97093.09;110140;1244;58933;-73
2023/04/30 05:39:47;;;;;;;12.50;10.00;;;;;;;9.22;73.05;97093.05;110172;1242;58866;-73
2023/04/30 05:42:16;;;;;;;10.70;9.60;;;;;;;9.39;72.61;97094.95;110193;1243;69920;-73
2023/04/30 05:44:45;;;;;;;11.10;9.40;;;;;;;9.61;72.13;97096.08;110199;1246;68386;-74
2023/04/30 05:47:14;;;;;;;11.30;9.90;;;;;;;9.87;70.61;97094.14;110149;1245;69845;-74
2023/04/30 05:49:43;;;;;;;12.50;10.10;;;;;;;10.24;69.92;97095.38;110080;1245;58891;-74
2023/04/30 05:52:14;;;;;;;11.30;9.80;;;;;;;10.62;70.62;97094.77;110128;1243;58886;-74
2023/04/30 05:54:42;;;;;;;14.70;11.20;;;;;;;11.06;68.40;97093.51;110162;1245;70598;-73
2023/04/30 05:57:12;;;;;;;14.40;12.00;;;;;;;11.30;67.11;97093.52;110135;1243;69680;-73
2023/04/30 05:59:41;;;;;;;12.80;11.20;;;;;;;11.57;66.41;97096.73;110148;1243;70268;-73
2023/04/30 06:02:10;;;;;;;13.60;11.40;;;;;;;11.87;65.15;97097.21;110111;1245;58902;-73
2023/04/30 06:04:39;;;;;;;12.60;10.70;;;;;;;11.92;64.13;97099.48;110170;1244;58847;-73
2023/04/30 06:07:08;;;;;;;13.70;11.00;;;;;;;12.19;63.09;97101.39;110155;1245;70540;-73
2023/04/30 06:09:37;;;;;;;10.60;9.50;;;;;;;12.54;62.36;97094.89;110140;1243;69457;-73
2023/04/30 06:12:06;;;;;;;12.00;10.10;;;;;;;12.96;61.73;97089.55;110176;1245;69894;-72
2023/04/30 06:14:35;;;;;;;12.80;9.70;;;;;;;13.51;60.41;97089.62;110164;1244;58869;-73
2023/04/30 06:17:04;;;;;;;11.20;10.00;;;;;;;14.00;56.81;97086.21;110165;1245;58894;-72
2023/04/30 06:19:34;;;;;;;11.10;9.40;;;;;;;14.27;55.32;97085.66;110150;1246;70590;-74
2023/04/30 06:22:03;;;;;;;11.40;9.80;;;;;;;14.33;54.40;97082.96;110277;1245;69093;-73
2023/04/30 06:24:32;;;;;;;11.10;8.90;;;;;;;14.53;53.99;97081.27;110132;1241;69076;-73
2023/04/30 06:27:02;;;;;;;12.10;9.60;;;;;;;14.79;52.36;97082.83;110262;1245;58892;-73
2023/04/30 06:29:31;;;;;;;10.90;9.70;;;;;;;14.72;52.61;97078.65;110119;1241;58867;-72
2023/04/30 06:32:00;;;;;;;10.90;9.70;;;;;;;14.61;51.71;97079.06;110123;1245;70398;-72
2023/04/30 06:34:28;;;;;;;12.10;10.20;;;;;;;14.24;52.48;97083.60;110179;1245;68468;-73
2023/04/30 06:36:57;;;;;;;11.20;10.00;;;;;;;13.85;53.69;97080.56;110110;1243;69703;-74
2023/04/30 06:39:25;;;;;;;9.30;7.20;;;;;;;13.55;53.91;97084.16;110236;1244;58935;-73
2023/04/30 06:41:54;;;;;;;9.40;6.50;;;;;;;13.32;54.12;97083.58;110111;1245;58896;-72
2023/04/30 06:44:23;;;;;;;7.60;6.50;;;;;;;13.38;53.95;97081.45;110140;1245;71142;-73
2023/04/30 06:46:52;;;;;;;6.60;5.90;;;;;;;13.64;54.84;97083.37;110161;1245;69829;-72
2023/04/30 06:49:21;;;;;;;9.40;7.20;;;;;;;13.84;52.73;97080.27;110095;1245;69179;-72
2023/04/30 06:51:51;;;;;;;10.00;9.00;;;;;;;14.35;53.28;97078.86;110102;1243;58919;-73
2023/04/30 06:54:21;;;;;;;12.80;9.80;;;;;;;14.68;52.07;97077.20;110146;1244;58865;-72
2023/04/30 06:56:50;;;;;;;12.90;10.40;;;;;;;14.84;52.16;97076.98;110131;1244;68867;-72
2023/04/30 06:59:19;;;;;;;13.20;10.10;;;;;;;15.21;51.29;97077.61;110116;1243;69680;-72
2023/04/30 07:01:48;;;;;;;12.10;10.80;;;;;;;15.63;51.35;97081.77;110105;1245;68474;-72
2023/04/30 07:04:17;;;;;;;13.60;10.40;;;;;;;16.20;49.65;97085.41;110167;1246;58921;-72
2023/04/30 07:06:46;;;;;;;11.10;10.00;;;;;;;16.64;48.95;97081.50;110174;1244;58931;-72
2023/04/30 07:09:15;;;;;;;12.90;11.50;;;;;;;16.98;47.54;97082.23;110118;1241;71211;-72
2023/04/30 07:11:44;;;;;;;10.60;9.10;;;;;;;17.31;45.80;97080.45;110143;1245;68503;-73
2023/04/30 07:14:13;;;;;;;12.50;10.30;;;;;;;17.22;44.71;97081.38;110121;1241;68719;-72
2023/04/30 07:16:44;;;;;;;12.00;10.30;;;;;;;17.21;45.92;97085.80;110161;1241;58895;-72
2023/04/30 07:19:13;;;;;;;11.30;10.10;;;;;;;17.20;45.94;97081.77;110176;1244;58879;-72
2023/04/30 07:21:42;;;;;;;13.30;11.90;;;;;;;17.14;46.37;97083.21;110134;1246;70471;-72
2023/04/30 07:24:10;;;;;;;12.50;11.20;;;;;;;16.91;46.23;97084.13;110154;1242;69258;-72
2023/04/30 07:26:41;;;;;;;11.20;10.10;;;;;;;16.94;46.27;97080.27;110111;1241;69056;-72
2023/04/30 07:29:10;;;;;;;12.00;10.00;;;;;;;17.28;45.45;97079.45;110123;1243;58876;-72
2023/04/30 07:31:39;;;;;;;10.40;8.90;;;;;;;16.96;44.86;97079.21;110285;1243;58867;-72
2023/04/30 07:34:08;;;;;;;9.10;7.60;;;;;;;17.18;44.55;97076.88;110262;1244;70228;-72
2023/04/30 07:36:37;;;;;;;11.00;9.90;;;;;;;17.81;44.67;97084.70;110240;1246;69111;-72
2023/04/30 07:39:06;;;;;;;10.20;8.50;;;;;;;18.15;42.94;97081.73;110290;1244;69516;-71
2023/04/30 07:41:35;;;;;;;11.30;9.50;;;;;;;18.77;42.82;97081.13;110071;1245;58941;-72
2023/04/30 07:44:04;;;;;;;9.20;8.00;;;;;;;19.38;42.22;97078.30;110144;1246;58882;-71
2023/04/30 07:46:35;;;;;;;9.60;8.60;;;;;;;20.03;40.72;97078.58;110162;1243;70552;-72
2023/04/30 07:49:04;;;;;;;8.30;7.00;;;;;;;19.97;38.62;97077.95;110255;1244;69655;-72
2023/04/30 07:51:32;;;;;;;6.40;5.80;;;;;;;19.48;39.82;97074.30;110228;1246;69299;-72
2023/04/30 07:54:01;;;;;;;7.90;7.20;;;;;;;20.12;39.63;97076.29;110260;1241;58861;-73
2023/04/30 07:56:30;;;;;;;8.20;7.30;;;;;;;19.50;38.48;97073.52;110221;1243;58863;-73
2023/04/30 07:58:58;;;;;;;7.50;6.70;;;;;;;18.83;39.11;97074.08;110252;1241;71136;-71
2023/04/30 08:01:27;;;;;;;9.30;7.20;;;;;;;18.49;39.85;97074.13;110156;1245;69647;-71
2023/04/30 08:03:56;;;;;;;9.80;7.40;;;;;;;19.34;40.02;97069.34;110106;1243;68354;-72
2023/04/30 08:06:27;;;;;;;6.90;5.80;;;;;;;19.15;38.93;97064.43;110254;1245;59711;-71
2023/04/30 08:08:56;;;;;;;7.50;5.80;;;;;;;19.45;38.58;97065.44;110254;1243;59604;-71
2023/04/30 08:11:26;;;;;;;7.60;6.50;;;;;;;19.67;39.02;97067.19;110105;1245;71963;-73
2023/04/30 08:13:54;;;;;;;7.70;5.80;;;;;;;19.75;39.36;97063.80;110140;1247;68567;-72
2023/04/30 08:16:23;;;;;;;7.30;6.10;;;;;;;19.84;37.05;97069.12;110107;1245;69062;-72
2023/04/30 08:18:53;;;;;;;8.20;6.40;;;;;;;19.83;37.13;97061.97;110255;1245;59744;-71
2023/04/30 08:21:22;;;;;;;6.20;5.60;;;;;;;20.14;36.96;97064.60;110263;1245;59666;-72
2023/04/30 08:23:50;;;;;;;6.40;5.20;;;;;;;20.55;37.16;97061.37;110290;1241;72231;-71
2023/04/30 08:26:19;;;;;;;5.80;4.70;;;;;;;21.00;36.42;97053.59;110242;1244;69310;-71
2023/04/30 08:28:48;;;;;;;5.70;4.80;;;;;;;21.50;35.33;97051.08;110264;1242;69090;-71
2023/04/30 08:31:17;;;;;;;4.90;4.40;;;;;;;21.82;35.52;97054.41;110222;1245;60199;-71
2023/04/30 08:33:45;;;;;;;6.10;5.00;;;;;;;21.94;34.82;97050.05;110267;1245;59699;-70
2023/04/30 08:36:14;;;;;;;5.30;4.30;;;;;;;21.75;34.70;97052.02;110276;1243;71695;-70
2023/04/30 08:38:43;;;;;;;6.00;4.40;;;;;;;22.06;34.71;97058.69;110155;1245;69113;-72
2023/04/30 08:41:13;;;;;;;5.80;4.10;;;;;;;22.24;33.83;97061.21;110106;1247;69271;-72
2023/04/30 08:43:45;;;;;;;6.80;4.70;;;;;;;21.78;33.25;97058.23;110312;1245;59744;-72
2023/04/30 08:46:16;;;;;;;4.50;4.10;;;;;;;21.57;33.58;97056.02;110220;1244;59710;-71
2023/04/30 08:48:47;;;;;;;4.50;3.70;;;;;;;22.12;34.51;97055.74;110131;1243;70409;-71
2023/04/30 08:51:16;;;;;;;5.80;4.30;;;;;;;22.70;33.91;97050.38;110068;1243;68664;-71
2023/04/30 08:53:47;;;;;;;4.20;3.50;;;;;;;22.46;33.53;97052.33;110253;1245;69749;-70
2023/04/30 08:56:15;;;;;;;4.40;3.70;;;;;;;22.87;33.40;97050.64;110274;1245;60137;-70
2023/04/30 08:58:44;;;;;;;4.80;3.90;;;;;;;23.55;32.38;97050.00;110312;1243;59659;-70
2023/04/30 09:01:14;;;;;;;4.90;3.70;;;;;;;23.97;31.27;97049.17;110252;1241;71241;-71
2023/04/30 09:03:43;;;;;;;5.90;3.80;;;;;;;24.03;30.72;97047.32;110311;1243;68717;-70
2023/04/30 09:06:18;;;;;;;4.60;3.50;;;;;;;24.34;30.11;97045.23;110157;1243;69258;-71
2023/04/30 09:08:49;;;;;;;4.70;3.80;;;;;;;24.43;30.98;97042.35;110291;1247;59775;-71
2023/04/30 09:11:30;;;;;;;4.70;4.00;;;;;;;24.27;30.71;97043.25;110216;1241;59723;-72
2023/04/30 09:14:01;;;;;;;4.30;3.90;;;;;;;24.88;30.25;97039.26;110312;1245;71688;-71
2023/04/30 09:16:48;;;;;;;4.40;3.60;;;;;;;24.73;28.53;97030.77;110209;1243;69668;-71
2023/04/30 09:19:27;;;;;;;5.00;3.60;;;;;;;24.74;30.09;97036.73;110191;1249;67565;-70
2023/04/30 09:21:56;;;;;;;5.30;3.60;;;;;;;25.21;29.20;97032.02;110317;1245;59685;-71
2023/04/30 09:24:25;;;;;;;4.70;3.40;;;;;;;25.55;28.18;97032.66;110392;1245;59629;-71
2023/04/30 09:26:54;;;;;;;4.30;3.70;;;;;;;25.14;28.51;97028.62;110347;1243;71958;-71
2023/04/30 09:29:36;;;;;;;3.80;3.40;;;;;;;25.51;28.36;97029.52;110333;1246;69202;-71
2023/04/30 09:32:08;;;;;;;4.70;3.30;;;;;;;24.93;27.89;97022.44;110374;1246;69881;-71
2023/04/30 09:34:37;;;;;;;4.10;3.70;;;;;;;24.95;29.37;97024.21;110292;1246;59699;-72
2023/04/30 09:37:06;;;;;;;3.80;3.10;;;;;;;25.32;29.26;97024.02;110256;1247;60140;-72
2023/04/30 09:39:45;;;;;;;;;;;;;;;25.44;28.88;97017.58;110256;1246;71391;-72
2023/04/30 09:42:14;;;;;;;4.50;4.10;;;;;;;25.23;28.00;97017.44;110323;1241;68815;-72
2023/04/30 09:44:43;;;;;;;5.70;3.50;;;;;;;25.32;27.99;97013.04;110272;1241;69226;-72
2023/04/30 09:47:16;;;;;;;4.90;3.40;;;;;;;25.79;28.19;97017.89;110272;1243;60019;-73
2023/04/30 09:49:52;;;;;;;4.80;3.90;;;;;;;26.10;27.88;97016.27;110270;1246;59705;-73
2023/04/30 09:52:22;;;;;;;5.70;4.30;;;;;;;25.56;28.63;97013.22;110328;1243;71150;-72
2023/04/30 09:54:50;;;;;;;;;;;;;;;25.68;28.57;97007.70;110138;1242;69751;-70
2023/04/30 09:57:22;;;;;;;5.00;3.50;;;;;;;25.68;28.69;97011.73;110255;1245;69614;-70
2023/04/30 09:59:53;;;;;;;3.90;3.40;;;;;;;26.46;27.81;97012.31;110124;1241;60107;-72
2023/04/30 10:02:22;;;;;;;4.40;3.60;;;;;;;26.21;26.63;97005.34;110287;1245;59703;-72
2023/04/30 10:04:57;;;;;;;3.70;3.20;;;;;;;26.94;26.70;97005.89;110259;1252;70625;-71
2023/04/30 10:07:34;;;;;;;4.70;3.60;;;;;;;27.33;25.76;97002.00;110236;1247;68759;-71
2023/04/30 10:10:07;;;;;;;4.40;3.40;;;;;;;26.55;26.31;97003.88;110247;1244;69313;-71
2023/04/30 10:12:48;;;;;;;7.90;3.80;;;;;;;26.16;27.34;97001.08;110281;1244;59769;-71
2023/04/30 10:15:22;;;;;;;5.00;3.40;;;;;;;25.97;26.32;96998.29;110288;1244;59680;-71
2023/04/30 10:18:03;;;;;;;2.90;2.60;;;;;;;26.06;26.38;96998.05;110261;1241;71775;-71
2023/04/30 10:20:36;;;;;;;4.60;3.10;;;;;;;26.64;25.84;96993.69;110221;1245;69039;-70
2023/04/30 10:23:06;;;;;;;3.40;2.60;;;;;;;26.79;26.07;96992.73;110282;1243;69092;-70
2023/04/30 10:25:37;;;;;;;4.10;3.00;;;;;;;27.18;25.30;96986.95;110226;1242;60121;-71
2023/04/30 10:28:07;;;;;;;4.20;2.90;;;;;;;27.50;25.20;96987.88;110252;1241;59741;-71
2023/04/30 10:30:37;;;;;;;3.60;2.70;;;;;;;27.37;25.22;96985.48;110223;1244;71734;-71
2023/04/30 10:33:17;;;;;;;3.30;2.70;;;;;;;26.66;25.05;96984.95;110243;1241;68549;-72
2023/04/30 10:35:56;;;;;;;4.80;3.10;;;;;;;25.88;26.94;96983.64;110241;1243;69760;-72
2023/04/30 10:38:30;;;;;;;3.90;2.50;;;;;;;26.47;25.81;96979.90;110196;1246;59717;-72
2023/04/30 10:41:01;;;;;;;3.90;2.70;;;;;;;26.61;25.66;96983.34;110229;1246;59743;-72
2023/04/30 10:43:30;;;;;;;3.10;2.50;;;;;;;26.52;25.90;96981.48;110255;1244;71977;-72
2023/04/30 10:45:59;;;;;;;3.60;2.50;;;;;;;26.66;25.56;96976.52;110244;1241;69689;-71
2023/04/30 10:48:30;;;;;;;;;;;;;;;27.02;25.17;96976.62;110252;1241;69275;-70
2023/04/30 10:50:59;;;;;;;2.80;2.50;;;;;;;26.32;26.25;96971.77;110234;1246;59699;-71
2023/04/30 10:53:30;;;;;;;3.30;2.40;;;;;;;25.73;25.57;96972.04;110244;1244;59719;-71
2023/04/30 10:56:11;;;;;;;3.60;2.60;;;;;;;24.86;26.11;96970.87;110247;1243;71966;-70
2023/04/30 10:58:40;;;;;;;3.90;2.30;;;;;;;25.94;26.16;96973.95;110239;1245;69039;-70
2023/04/30 11:01:11;;;;;;;2.70;2.30;;;;;;;26.26;25.02;96974.08;110243;1245;68517;-70
2023/04/30 11:03:42;;;;;;;2.80;2.50;;;;;;;26.44;24.46;96971.17;110231;1241;59744;-70
2023/04/30 11:06:18;;;;;;;3.20;2.50;;;;;;;26.14;24.58;96971.18;110221;1245;59684;-71
2023/04/30 11:08:47;;;;;;;4.40;3.20;;;;;;;25.79;24.57;96968.35;110234;1246;71380;-69
2023/04/30 11:11:22;;;;;;;3.20;2.50;;;;;;;25.65;24.79;96968.44;110247;1241;69089;-70
2023/04/30 11:14:00;;;;;;;2.70;2.50;;;;;;;25.69;25.54;96966.56;110261;1245;69087;-70
2023/04/30 11:16:30;;;;;;;4.10;2.70;;;;;;;26.08;25.36;96962.59;110276;1244;59673;-71
2023/04/30 11:19:08;;;;;;;2.80;2.10;;;;;;;25.72;24.70;96960.86;110248;1241;59751;-70
2023/04/30 11:21:39;;;;;;;;;;;;;;;26.28;24.82;96957.45;110240;1245;72343;-70
2023/04/30 11:24:08;;;;;;;3.40;2.40;;;;;;;25.89;25.23;96956.39;110262;1242;69265;-70
2023/04/30 11:27:06;;;;;;;2.90;2.50;;;;;;;26.39;24.69;96950.71;110229;1245;69843;-71
2023/04/30 11:29:36;;;;;;;3.10;2.40;;;;;;;26.93;25.04;96954.70;110104;1245;59689;-71
2023/04/30 11:32:06;;;;;;;2.90;2.50;;;;;;;25.90;24.67;96950.36;110261;1245;59711;-70
2023/04/30 11:34:37;;;;;;;2.80;2.20;;;;;;;25.38;25.45;96949.77;110281;1244;70436;-73
2023/04/30 11:37:06;;;;;;;2.70;2.30;;;;;;;25.97;25.39;96947.42;110248;1245;69821;-72
2023/04/30 11:39:37;;;;;;;3.30;2.40;;;;;;;26.74;24.07;96946.23;110289;1245;70089;-75
2023/04/30 11:42:07;;;;;;;3.00;2.30;;;;;;;26.72;23.58;96939.01;110250;1246;59744;-72
2023/04/30 11:44:37;;;;;;;3.50;2.40;;;;;;;27.03;23.51;96938.89;110244;1245;59678;-73